Time;durP1;ratioP1;P1;durP2;ratioP2;P2;SDS_P1;SDS_P2;PMS_P1;PMS_P2;Temp;Humidity;BMP_temperature;BMP_pressure;BME280_temperature;BME280_humidity;BME280_pressure;Samples;Min_cycle;Max_cycle;Signal;HPM_P1;HPM_P2
2023/02/12 00:00:32;;;;;;;8.90;7.60;;;11.00;67.60;;;;;;4916969;29;20063;-82
2023/02/12 00:02:58;;;;;;;9.68;7.93;;;11.00;67.50;;;;;;4926346;29;20067;-82
2023/02/12 00:05:24;;;;;;;11.18;8.48;;;11.00;67.50;;;;;;4921728;29;20093;-82
2023/02/12 00:07:52;;;;;;;11.18;8.13;;;11.00;67.50;;;;;;4917524;29;20032;-80
2023/02/12 00:10:18;;;;;;;9.73;8.38;;;11.00;67.50;;;;;;4921935;29;20700;-81
2023/02/12 00:12:43;;;;;;;9.43;8.35;;;11.00;67.50;;;;;;4925665;29;20094;-80
2023/02/12 00:15:09;;;;;;;9.13;8.10;;;11.00;67.60;;;;;;4924983;29;20047;-79
2023/02/12 00:17:35;;;;;;;10.27;8.50;;;10.90;67.40;;;;;;4925777;29;20051;-79
2023/02/12 00:20:02;;;;;;;10.95;9.23;;;10.90;67.40;;;;;;4922735;29;20036;-79
2023/02/12 00:22:28;;;;;;;11.73;9.63;;;11.00;67.60;;;;;;4923831;29;20040;-79
2023/02/12 00:24:55;;;;;;;11.30;9.30;;;10.90;67.50;;;;;;4925440;29;20051;-79
2023/02/12 00:27:21;;;;;;;10.75;9.63;;;10.90;67.50;;;;;;4924271;29;20440;-79
2023/02/12 00:29:47;;;;;;;11.35;10.07;;;10.90;67.90;;;;;;4925651;29;20047;-78
2023/02/12 00:32:18;;;;;;;11.02;9.93;;;10.90;67.60;;;;;;4925506;29;20042;-78
2023/02/12 00:34:48;;;;;;;15.02;10.60;;;10.90;67.60;;;;;;4923038;29;20075;-78
2023/02/12 00:37:15;;;;;;;14.07;10.27;;;10.80;67.50;;;;;;4915444;29;20051;-77
2023/02/12 00:39:41;;;;;;;12.82;10.88;;;10.80;67.50;;;;;;4922968;29;20042;-78
2023/02/12 00:42:07;;;;;;;14.10;11.18;;;10.90;67.70;;;;;;4920867;29;20127;-78
2023/02/12 00:44:33;;;;;;;15.07;11.25;;;10.80;67.60;;;;;;4924450;29;20054;-78
2023/02/12 00:47:05;;;;;;;12.63;11.23;;;10.80;67.60;;;;;;4924866;29;20043;-79
2023/02/12 00:49:34;;;;;;;13.35;11.02;;;10.90;67.80;;;;;;4913116;29;20373;-79
2023/02/12 00:52:01;;;;;;;14.57;12.25;;;10.80;67.60;;;;;;4920032;29;20613;-80
2023/02/12 00:54:28;;;;;;;14.13;11.95;;;10.80;67.60;;;;;;4921604;29;20090;-79
2023/02/12 00:56:55;;;;;;;13.68;11.60;;;10.90;67.80;;;;;;4924153;29;20043;-80
2023/02/12 00:59:22;;;;;;;13.57;11.52;;;10.90;67.80;;;;;;4923497;29;20043;-79
2023/02/12 01:01:48;;;;;;;13.70;12.30;;;10.80;67.60;;;;;;4924944;29;20032;-78
2023/02/12 01:04:14;;;;;;;14.05;12.55;;;10.90;67.80;;;;;;4925522;29;20040;-78
2023/02/12 01:06:40;;;;;;;15.13;11.77;;;10.90;67.80;;;;;;4920263;28;20067;-79
2023/02/12 01:09:06;;;;;;;14.35;11.57;;;10.90;67.80;;;;;;4921214;29;20067;-78
2023/02/12 01:11:32;;;;;;;13.55;11.68;;;10.90;67.80;;;;;;4921631;29;20456;-78
2023/02/12 01:13:59;;;;;;;16.17;12.18;;;10.90;67.80;;;;;;4927037;29;20032;-80
2023/02/12 01:16:25;;;;;;;14.18;12.15;;;10.90;68.30;;;;;;4928807;29;20071;-80
2023/02/12 01:18:53;;;;;;;13.82;11.95;;;10.80;67.70;;;;;;4929207;29;20046;-80
2023/02/12 01:21:21;;;;;;;15.88;13.00;;;10.90;67.80;;;;;;4927186;29;20035;-77
2023/02/12 01:23:48;;;;;;;14.45;12.68;;;10.90;67.90;;;;;;4926274;29;20043;-79
2023/02/12 01:26:16;;;;;;;13.50;12.10;;;10.90;67.80;;;;;;4927809;28;20035;-78
2023/02/12 01:28:43;;;;;;;14.80;13.20;;;10.90;67.90;;;;;;4927795;29;20701;-79
2023/02/12 01:31:12;;;;;;;13.35;12.05;;;10.90;67.90;;;;;;4926829;29;20095;-79
2023/02/12 01:33:38;;;;;;;15.73;13.07;;;10.80;67.70;;;;;;4926318;29;20043;-80
2023/02/12 01:36:04;;;;;;;15.05;12.10;;;10.90;67.90;;;;;;4927136;29;20091;-79
2023/02/12 01:38:30;;;;;;;13.02;11.77;;;10.80;67.70;;;;;;4926869;29;20054;-78
2023/02/12 01:41:08;;;;;;;17.42;13.32;;;10.80;67.70;;;;;;4924979;29;20043;-78
2023/02/12 01:43:36;;;;;;;14.02;12.60;;;10.80;67.80;;;;;;4926935;29;20050;-79
2023/02/12 01:46:04;;;;;;;15.10;13.18;;;10.80;67.80;;;;;;4927707;29;20119;-79
2023/02/12 01:48:36;;;;;;;15.20;12.65;;;10.80;67.80;;;;;;4921212;29;20040;-79
2023/02/12 01:51:05;;;;;;;13.32;11.88;;;10.80;67.80;;;;;;4921230;29;20042;-78
2023/02/12 01:53:39;;;;;;;15.90;12.65;;;10.80;67.90;;;;;;4922590;29;20039;-78
2023/02/12 01:56:08;;;;;;;14.45;11.85;;;10.70;67.70;;;;;;4925221;29;20054;-79
2023/02/12 01:58:38;;;;;;;15.15;13.55;;;10.70;67.70;;;;;;4919620;29;20074;-79
2023/02/12 02:01:06;;;;;;;14.27;12.68;;;10.70;67.80;;;;;;4921229;29;20115;-79
2023/02/12 02:03:34;;;;;;;14.75;13.20;;;10.70;67.80;;;;;;4926548;29;20627;-78
2023/02/12 02:06:08;;;;;;;14.35;12.07;;;10.70;67.80;;;;;;4927042;29;20164;-80
2023/02/12 02:08:34;;;;;;;14.63;13.13;;;10.70;67.80;;;;;;4921645;29;20388;-80
2023/02/12 02:14:31;;;;;;;13.88;12.32;;;10.70;67.80;;;;;;4924752;29;20055;-79
2023/02/12 02:16:34;;;;;;;14.55;13.05;;;10.70;67.80;;;;;;4922690;29;20036;-78
2023/02/12 02:19:32;;;;;;;14.30;12.20;;;10.70;67.90;;;;;;4925851;29;20518;-79
2023/02/12 02:22:14;;;;;;;15.95;13.18;;;10.70;68.00;;;;;;4923044;29;20452;-80
2023/02/12 02:25:07;;;;;;;18.85;14.98;;;10.70;68.00;;;;;;4934596;28;20126;-80
2023/02/12 02:27:51;;;;;;;14.93;13.43;;;10.70;68.00;;;;;;4916781;29;20040;-79
2023/02/12 02:30:20;;;;;;;15.10;12.40;;;10.60;67.70;;;;;;4926267;29;20063;-79
2023/02/12 02:32:46;;;;;;;17.88;14.43;;;10.60;67.70;;;;;;4927738;29;20035;-79
2023/02/12 02:35:19;;;;;;;15.15;13.55;;;10.60;67.80;;;;;;4926333;29;20038;-79
2023/02/12 02:37:53;;;;;;;17.75;13.82;;;10.60;67.80;;;;;;4919366;29;20055;-78
2023/02/12 02:40:34;;;;;;;16.35;13.80;;;10.60;68.30;;;;;;4925341;29;20043;-80
2023/02/12 02:43:06;;;;;;;16.00;14.20;;;10.60;67.90;;;;;;4922881;29;20123;-81
2023/02/12 02:45:52;;;;;;;15.68;13.70;;;10.60;67.90;;;;;;4925962;29;20047;-80
2023/02/12 02:48:23;;;;;;;14.35;12.82;;;10.50;67.70;;;;;;4931219;29;20032;-79
2023/02/12 02:50:55;;;;;;;14.35;12.85;;;10.50;67.70;;;;;;4928682;29;20032;-80
2023/02/12 02:53:41;;;;;;;17.05;14.80;;;10.50;67.70;;;;;;4931285;29;20056;-79
2023/02/12 02:56:13;;;;;;;15.18;13.68;;;10.50;67.80;;;;;;4928124;29;20032;-79
2023/02/12 02:58:44;;;;;;;16.77;14.40;;;10.50;67.80;;;;;;4925996;29;20107;-79
2023/02/12 03:01:13;;;;;;;16.63;14.50;;;10.50;67.80;;;;;;4917524;29;20155;-79
2023/02/12 03:04:01;;;;;;;14.43;12.93;;;10.50;67.80;;;;;;4933907;29;20399;-79
2023/02/12 03:06:38;;;;;;;14.68;13.18;;;10.50;67.90;;;;;;4921639;29;20119;-79
2023/02/12 03:09:23;;;;;;;15.25;12.93;;;10.50;68.40;;;;;;4926819;29;20040;-79
2023/02/12 03:11:51;;;;;;;17.33;13.73;;;10.50;67.90;;;;;;4930533;29;20036;-80
2023/02/12 03:14:25;;;;;;;15.32;13.68;;;10.50;67.90;;;;;;4925776;29;20043;-79
2023/02/12 03:17:00;;;;;;;17.50;15.65;;;10.50;67.90;;;;;;4924541;29;20031;-79
2023/02/12 03:19:35;;;;;;;15.35;13.40;;;10.50;67.90;;;;;;4921908;29;20036;-79
2023/02/12 03:22:06;;;;;;;14.70;13.27;;;10.50;68.00;;;;;;4929021;29;20093;-79
2023/02/12 03:24:56;;;;;;;15.70;14.10;;;10.50;67.90;;;;;;4928160;29;20043;-78
2023/02/12 03:27:27;;;;;;;14.25;12.75;;;10.50;67.90;;;;;;4926649;29;20036;-80
2023/02/12 03:29:53;;;;;;;14.73;13.20;;;10.50;67.90;;;;;;4922936;29;20056;-79
2023/02/12 03:32:37;;;;;;;13.63;12.18;;;10.50;68.00;;;;;;4930227;29;20550;-77
2023/02/12 03:35:21;;;;;;;16.67;13.18;;;10.50;68.00;;;;;;4929741;29;20047;-79
2023/02/12 03:37:50;;;;;;;;;;;10.40;67.90;;;;;;4925168;29;20070;-81
2023/02/12 03:40:29;;;;;;;13.63;12.32;;;10.40;67.80;;;;;;4927910;29;20260;-78
2023/02/12 03:43:22;;;;;;;14.20;12.70;;;10.40;67.80;;;;;;4929181;29;20054;-80
2023/02/12 03:46:05;;;;;;;14.57;12.77;;;10.40;67.80;;;;;;4921180;29;20047;-78
2023/02/12 03:48:57;;;;;;;15.35;12.32;;;10.40;67.80;;;;;;4929581;29;20032;-79
2023/02/12 03:51:39;;;;;;;14.20;12.45;;;10.40;67.90;;;;;;4924533;29;20039;-79
2023/02/12 03:54:07;;;;;;;14.73;12.32;;;10.30;67.70;;;;;;4920675;29;20048;-80
2023/02/12 03:56:39;;;;;;;13.35;11.95;;;10.30;67.70;;;;;;4928424;29;20403;-79
2023/02/12 03:59:06;;;;;;;14.77;12.50;;;10.40;68.00;;;;;;4909239;29;20039;-79
2023/02/12 04:01:33;;;;;;;13.48;12.07;;;10.40;68.00;;;;;;4941161;29;20611;-79
2023/02/12 04:04:04;;;;;;;13.13;11.93;;;10.40;68.00;;;;;;4929761;29;20110;-79
2023/02/12 04:06:30;;;;;;;15.55;13.77;;;10.30;67.80;;;;;;4924528;29;20575;-80
2023/02/12 04:09:07;;;;;;;13.23;11.32;;;10.40;68.00;;;;;;4923281;29;20059;-80
2023/02/12 04:11:53;;;;;;;14.07;12.57;;;10.40;68.10;;;;;;4931602;29;20170;-80
2023/02/12 04:14:51;;;;;;;12.35;11.13;;;10.30;67.90;;;;;;4931254;28;20131;-81
2023/02/12 04:17:45;;;;;;;12.85;11.48;;;10.30;67.90;;;;;;4927332;29;20040;-81
2023/02/12 04:20:35;;;;;;;11.82;10.60;;;10.30;67.90;;;;;;4924573;29;20043;-79
2023/02/12 04:23:28;;;;;;;13.02;11.15;;;10.30;67.90;;;;;;4928678;29;20126;-79
2023/02/12 04:26:38;;;;;;;13.38;10.85;;;10.30;67.90;;;;;;4918081;29;20056;-80
2023/02/12 04:29:28;;;;;;;11.13;10.02;;;10.30;67.90;;;;;;4927350;29;20055;-78
2023/02/12 04:32:02;;;;;;;11.23;9.85;;;10.30;67.90;;;;;;4928461;29;20066;-79
2023/02/12 04:34:28;;;;;;;11.07;9.95;;;10.20;67.70;;;;;;4927674;29;20043;-79
2023/02/12 04:36:57;;;;;;;10.90;9.68;;;10.30;68.00;;;;;;4921906;29;20048;-78
2023/02/12 04:39:28;;;;;;;10.98;9.88;;;10.20;67.80;;;;;;4921761;29;20047;-79
2023/02/12 04:41:58;;;;;;;13.15;9.10;;;10.20;67.90;;;;;;4927296;29;20051;-79
2023/02/12 04:44:27;;;;;;;10.23;8.95;;;10.20;67.90;;;;;;4922197;29;20554;-79
2023/02/12 04:46:53;;;;;;;10.55;9.20;;;10.20;67.90;;;;;;4929058;29;20063;-79
2023/02/12 04:49:20;;;;;;;10.30;9.30;;;10.20;67.90;;;;;;4932622;29;20523;-79
2023/02/12 04:51:47;;;;;;;10.32;9.25;;;10.20;67.90;;;;;;4921983;29;20027;-79
2023/02/12 04:54:14;;;;;;;11.00;9.43;;;10.20;68.00;;;;;;4928067;29;20064;-78
2023/02/12 04:56:40;;;;;;;10.35;9.35;;;10.20;68.00;;;;;;4932876;29;20056;-78
2023/02/12 04:59:06;;;;;;;11.30;10.13;;;10.20;68.00;;;;;;4916336;29;20483;-79
2023/02/12 05:01:34;;;;;;;11.00;9.45;;;10.20;68.00;;;;;;4927034;29;20035;-79
2023/02/12 05:04:01;;;;;;;10.68;9.57;;;10.20;68.00;;;;;;4932662;29;20044;-79
2023/02/12 05:06:27;;;;;;;10.45;9.45;;;10.20;68.00;;;;;;4927635;29;20667;-78
2023/02/12 05:08:53;;;;;;;13.52;10.50;;;10.10;67.80;;;;;;4924593;29;20548;-78
2023/02/12 05:11:19;;;;;;;10.90;9.52;;;10.20;68.00;;;;;;4929944;29;20122;-78
2023/02/12 05:13:49;;;;;;;10.70;9.63;;;10.10;67.80;;;;;;4932967;29;20514;-80
2023/02/12 05:16:16;;;;;;;12.30;9.07;;;10.20;68.00;;;;;;4921778;29;20039;-80
2023/02/12 05:18:43;;;;;;;10.82;9.73;;;10.10;67.90;;;;;;4928533;29;20090;-80
2023/02/12 05:21:09;;;;;;;10.75;9.15;;;10.10;67.90;;;;;;4932650;29;20039;-80
2023/02/12 05:23:36;;;;;;;10.02;8.73;;;10.10;67.90;;;;;;4931681;29;20043;-80
2023/02/12 05:26:09;;;;;;;11.05;9.95;;;10.10;67.90;;;;;;4930381;29;20504;-79
2023/02/12 05:28:35;;;;;;;;;;;10.10;67.90;;;;;;4929398;29;20083;-79
2023/02/12 05:31:04;;;;;;;9.98;8.93;;;10.10;67.90;;;;;;4932239;29;19923;-79
2023/02/12 05:33:31;;;;;;;12.25;10.18;;;10.10;67.90;;;;;;4899559;29;20047;-79
2023/02/12 05:36:11;;;;;;;12.15;10.38;;;10.10;67.90;;;;;;4931884;29;20138;-79
2023/02/12 05:38:37;;;;;;;12.52;11.23;;;10.00;67.80;;;;;;4927213;29;20050;-80
2023/02/12 05:41:10;;;;;;;10.23;9.23;;;10.00;67.80;;;;;;4931459;29;20032;-81
2023/02/12 05:43:36;;;;;;;;;;;10.00;67.80;;;;;;4930471;29;20044;-79
2023/02/12 05:46:05;;;;;;;10.82;9.20;;;10.00;67.80;;;;;;4932228;29;19921;-80
2023/02/12 05:48:32;;;;;;;10.23;9.23;;;10.10;68.00;;;;;;4925615;29;20469;-80
2023/02/12 05:51:07;;;;;;;11.10;10.00;;;10.00;68.30;;;;;;4927560;29;20047;-80
2023/02/12 05:53:34;;;;;;;11.95;10.20;;;10.00;67.90;;;;;;4925181;29;20146;-80
2023/02/12 05:56:08;;;;;;;11.23;9.32;;;10.00;67.90;;;;;;4923557;29;20040;-80
2023/02/12 05:58:35;;;;;;;11.25;10.10;;;10.00;67.90;;;;;;4927627;29;20496;-81
2023/02/12 06:01:01;;;;;;;11.73;9.70;;;10.00;67.90;;;;;;4925867;29;20591;-81
2023/02/12 06:03:27;;;;;;;11.77;9.45;;;10.10;68.10;;;;;;4925055;29;20046;-82
2023/02/12 06:05:52;;;;;;;10.30;9.27;;;10.10;68.10;;;;;;4927306;29;20039;-82
2023/02/12 06:08:18;;;;;;;11.02;9.45;;;10.00;67.90;;;;;;4919725;29;20113;-81
2023/02/12 06:10:44;;;;;;;10.27;9.25;;;10.00;67.90;;;;;;4923247;29;20492;-82
2023/02/12 06:13:10;;;;;;;11.00;9.90;;;10.00;67.90;;;;;;4925413;29;20145;-79
2023/02/12 06:15:36;;;;;;;11.02;9.90;;;10.00;67.90;;;;;;4923917;29;20035;-80
2023/02/12 06:18:02;;;;;;;10.23;9.07;;;10.00;68.50;;;;;;4926313;29;20034;-81
2023/02/12 06:20:28;;;;;;;10.05;9.02;;;10.00;68.00;;;;;;4923390;29;20055;-81
2023/02/12 06:22:54;;;;;;;10.65;9.30;;;10.00;68.00;;;;;;4922310;29;20036;-80
2023/02/12 06:25:20;;;;;;;10.98;9.25;;;10.00;68.00;;;;;;4924823;29;20066;-80
2023/02/12 06:27:46;;;;;;;10.07;9.07;;;10.00;68.00;;;;;;4925895;29;20043;-81
2023/02/12 06:30:13;;;;;;;10.63;9.63;;;10.00;68.00;;;;;;4927005;29;20115;-81
2023/02/12 06:32:39;;;;;;;10.32;9.23;;;10.00;68.10;;;;;;4924247;29;20040;-82
2023/02/12 06:35:05;;;;;;;9.98;9.05;;;10.00;68.10;;;;;;4924484;29;20392;-78
2023/02/12 06:37:31;;;;;;;9.30;8.40;;;10.00;68.10;;;;;;4920985;29;20514;-78
2023/02/12 06:39:57;;;;;;;10.20;9.25;;;10.00;68.10;;;;;;4925479;29;20505;-82
2023/02/12 06:42:23;;;;;;;9.10;8.20;;;10.00;68.10;;;;;;4924399;28;20039;-81
2023/02/12 06:44:49;;;;;;;10.23;9.20;;;10.00;68.10;;;;;;4928228;29;20055;-79
2023/02/12 06:47:15;;;;;;;9.90;9.00;;;10.00;68.10;;;;;;4925892;29;20035;-85
2023/02/12 06:49:41;;;;;;;11.43;9.02;;;10.00;68.10;;;;;;4924015;29;20102;-88
2023/02/12 06:52:07;;;;;;;11.75;9.65;;;9.90;67.90;;;;;;4923242;29;20242;-81
2023/02/12 06:54:33;;;;;;;10.27;9.10;;;9.90;67.90;;;;;;4918834;29;20579;-79
2023/02/12 06:56:59;;;;;;;10.93;9.18;;;9.90;68.00;;;;;;4926654;29;20032;-82
2023/02/12 06:59:24;;;;;;;10.05;8.93;;;9.90;68.00;;;;;;4928819;29;20518;-87
2023/02/12 07:01:50;;;;;;;9.73;8.70;;;9.90;68.00;;;;;;4926743;29;20065;-80
2023/02/12 07:04:16;;;;;;;12.93;9.52;;;9.90;68.00;;;;;;4923296;29;20044;-84
2023/02/12 07:06:42;;;;;;;10.00;8.63;;;9.90;68.10;;;;;;4934369;28;20037;-84
2023/02/12 07:09:08;;;;;;;12.15;8.75;;;9.90;68.30;;;;;;4932645;29;20041;-80
2023/02/12 07:11:35;;;;;;;10.23;9.13;;;9.90;68.50;;;;;;4913364;29;20381;-81
2023/02/12 07:14:01;;;;;;;11.85;8.95;;;10.00;68.80;;;;;;4926255;29;20040;-83
2023/02/12 07:16:27;;;;;;;13.63;9.65;;;10.10;69.10;;;;;;4922243;29;20452;-77
2023/02/12 07:18:53;;;;;;;13.20;9.57;;;10.20;69.40;;;;;;4916319;29;20070;-76
2023/02/12 07:21:20;;;;;;;16.23;10.43;;;10.20;69.50;;;;;;4926615;29;20035;-78
2023/02/12 07:23:48;;;;;;;11.23;10.02;;;10.30;69.80;;;;;;4924501;29;20082;-84
2023/02/12 07:26:14;;;;;;;12.07;10.02;;;10.40;70.10;;;;;;4910623;29;20027;-82
2023/02/12 07:28:41;;;;;;;12.70;10.23;;;10.50;70.20;;;;;;4917625;29;20051;-79
2023/02/12 07:31:11;;;;;;;11.35;9.70;;;10.50;70.20;;;;;;4922489;29;20068;-78
2023/02/12 07:33:38;;;;;;;13.05;10.38;;;10.60;70.30;;;;;;4919603;29;20299;-79
2023/02/12 07:36:07;;;;;;;11.00;8.88;;;10.50;70.10;;;;;;4923206;29;20050;-79
2023/02/12 07:38:38;;;;;;;9.85;8.77;;;10.60;70.30;;;;;;4920000;29;20035;-79
2023/02/12 07:41:14;;;;;;;11.25;9.57;;;10.60;70.30;;;;;;4921822;29;20062;-80
2023/02/12 07:43:42;;;;;;;9.85;8.93;;;10.60;70.40;;;;;;4922573;29;20031;-78
2023/02/12 07:46:11;;;;;;;10.65;9.50;;;10.60;70.30;;;;;;4905854;29;20032;-81
2023/02/12 07:48:37;;;;;;;10.27;9.00;;;10.60;70.50;;;;;;4920927;29;20418;-81
2023/02/12 07:51:08;;;;;;;11.20;9.70;;;10.60;70.40;;;;;;4924014;29;20555;-81
2023/02/12 07:53:35;;;;;;;11.15;9.13;;;10.60;70.40;;;;;;4924122;29;20039;-79
2023/02/12 07:56:10;;;;;;;10.25;9.10;;;10.70;70.60;;;;;;4919142;29;20047;-78
2023/02/12 07:58:37;;;;;;;11.15;9.30;;;10.60;70.40;;;;;;4923031;29;20047;-79
2023/02/12 08:01:23;;;;;;;11.52;9.52;;;10.60;70.40;;;;;;4923183;29;20063;-81
2023/02/12 08:03:50;;;;;;;10.80;9.70;;;10.60;70.50;;;;;;4919528;29;20444;-80
2023/02/12 08:06:22;;;;;;;10.57;9.48;;;10.70;70.60;;;;;;4921041;29;20043;-79
2023/02/12 08:08:50;;;;;;;10.82;9.70;;;10.70;70.50;;;;;;4923527;29;20314;-79
2023/02/12 08:11:17;;;;;;;10.02;8.98;;;10.70;70.40;;;;;;4935388;28;20086;-81
2023/02/12 08:13:44;;;;;;;10.63;9.52;;;10.70;70.40;;;;;;4915823;29;20035;-82
2023/02/12 08:16:16;;;;;;;15.70;9.95;;;10.70;70.30;;;;;;4924959;28;20050;-84
2023/02/12 08:18:42;;;;;;;11.88;10.68;;;10.60;70.20;;;;;;4907087;29;20063;-86
2023/02/12 08:21:11;;;;;;;12.10;10.15;;;10.70;70.50;;;;;;4923128;29;20220;-82
2023/02/12 08:23:37;;;;;;;11.60;10.40;;;10.70;70.40;;;;;;4927142;29;20048;-82
2023/02/12 08:26:10;;;;;;;11.43;10.27;;;10.70;70.40;;;;;;4916980;29;20059;-80
2023/02/12 08:28:39;;;;;;;12.32;11.02;;;10.70;70.30;;;;;;4928803;29;20071;-81
2023/02/12 08:31:14;;;;;;;13.45;11.63;;;10.70;70.20;;;;;;4923009;29;20325;-81
2023/02/12 08:33:40;;;;;;;14.50;11.98;;;10.70;70.10;;;;;;4920115;29;20028;-82
2023/02/12 08:36:09;;;;;;;14.02;12.57;;;10.70;70.00;;;;;;4923412;29;20536;-79
2023/02/12 08:38:35;;;;;;;15.15;12.98;;;10.80;70.10;;;;;;4922911;29;20599;-80
2023/02/12 08:41:04;;;;;;;15.68;14.07;;;10.80;70.00;;;;;;4925135;29;20031;-81
2023/02/12 08:43:30;;;;;;;15.38;12.52;;;10.80;69.90;;;;;;4929954;29;20042;-84
2023/02/12 08:46:08;;;;;;;13.98;12.50;;;10.80;69.80;;;;;;4927050;29;20106;-79
2023/02/12 08:48:34;;;;;;;16.52;14.52;;;10.80;70.20;;;;;;4919581;29;20107;-84
2023/02/12 08:51:08;;;;;;;18.33;14.15;;;10.80;69.60;;;;;;4926387;29;20028;-85
2023/02/12 08:53:35;;;;;;;15.55;13.88;;;10.80;69.60;;;;;;4926469;29;20749;-83
2023/02/12 08:56:01;;;;;;;15.73;13.82;;;10.80;69.50;;;;;;4921094;29;20043;-85
2023/02/12 08:58:27;;;;;;;15.45;13.80;;;10.80;69.90;;;;;;4925491;29;20035;-80
2023/02/12 09:00:53;;;;;;;15.88;14.20;;;10.80;69.30;;;;;;4925834;29;20204;-79
2023/02/12 09:03:19;;;;;;;19.10;15.70;;;10.90;69.30;;;;;;4919503;29;20043;-76
2023/02/12 09:05:45;;;;;;;15.15;13.55;;;10.90;69.20;;;;;;4924638;29;20480;-77
2023/02/12 09:08:11;;;;;;;18.75;14.93;;;10.90;69.10;;;;;;4922016;29;20570;-80
2023/02/12 09:10:41;;;;;;;19.70;15.43;;;10.90;69.10;;;;;;4917890;29;20039;-80
2023/02/12 09:13:09;;;;;;;18.92;15.35;;;11.00;69.40;;;;;;4925443;29;20040;-79
2023/02/12 09:15:42;;;;;;;19.38;14.20;;;11.10;69.70;;;;;;4926278;29;20221;-81
2023/02/12 09:18:10;;;;;;;18.60;13.88;;;11.20;69.90;;;;;;4922638;29;20070;-81
2023/02/12 09:20:38;;;;;;;16.25;13.30;;;11.30;70.00;;;;;;4921958;29;20121;-79
2023/02/12 09:23:06;;;;;;;15.70;13.82;;;11.40;70.10;;;;;;4925712;29;20055;-79
2023/02/12 09:25:33;;;;;;;16.98;14.10;;;11.50;70.20;;;;;;4922411;29;20039;-77
2023/02/12 09:28:02;;;;;;;15.82;13.95;;;11.70;70.40;;;;;;4909267;29;20151;-79
2023/02/12 09:30:28;;;;;;;14.82;13.00;;;11.80;70.50;;;;;;4924834;29;20056;-78
2023/02/12 09:32:55;;;;;;;16.08;13.43;;;11.90;70.50;;;;;;4919133;29;20760;-78
2023/02/12 09:35:21;;;;;;;17.23;12.43;;;12.00;70.50;;;;;;4924343;29;20031;-77
2023/02/12 09:37:47;;;;;;;15.95;12.70;;;12.10;70.40;;;;;;4919110;29;20046;-78
2023/02/12 09:40:42;;;;;;;15.95;12.95;;;12.20;70.40;;;;;;4921149;29;20036;-78
2023/02/12 09:43:22;;;;;;;15.75;12.95;;;12.40;70.50;;;;;;4924680;29;20131;-78
2023/02/12 09:46:01;;;;;;;13.52;11.52;;;12.50;70.40;;;;;;4915568;29;20527;-78
2023/02/12 09:48:44;;;;;;;14.15;12.52;;;12.60;70.40;;;;;;4923937;29;20866;-78
2023/02/12 09:51:10;;;;;;;;;;;12.70;70.40;;;;;;4920068;29;20076;-77
2023/02/12 09:53:40;;;;;;;14.95;12.13;;;12.80;70.30;;;;;;4933419;29;19917;-79
2023/02/12 09:56:17;;;;;;;15.50;10.90;;;12.80;70.00;;;;;;4926846;29;20428;-79
2023/02/12 09:58:51;;;;;;;12.02;10.80;;;12.90;70.00;;;;;;4929436;29;20031;-77
2023/02/12 10:01:20;;;;;;;13.43;11.38;;;13.00;70.10;;;;;;4933850;29;20058;-80
2023/02/12 10:03:48;;;;;;;11.55;9.85;;;13.10;70.10;;;;;;4932257;29;20035;-79
2023/02/12 10:06:43;;;;;;;13.85;12.27;;;13.10;69.90;;;;;;4920169;29;20052;-79
2023/02/12 10:09:15;;;;;;;13.10;11.02;;;13.30;69.90;;;;;;4923456;29;20157;-75
2023/02/12 10:11:55;;;;;;;11.87;10.67;;;13.30;69.80;;;;;;4916377;29;20020;-76
2023/02/12 10:14:57;;;;;;;12.95;11.48;;;13.30;69.50;;;;;;4928023;29;20147;-75
2023/02/12 10:17:26;;;;;;;10.63;9.52;;;13.30;69.30;;;;;;4926409;29;20059;-76
2023/02/12 10:20:17;;;;;;;12.50;9.98;;;13.30;69.20;;;;;;4924421;29;20107;-78
2023/02/12 10:23:02;;;;;;;9.73;8.70;;;13.40;69.10;;;;;;4923380;29;20032;-78
2023/02/12 10:25:51;;;;;;;9.55;8.55;;;13.40;69.00;;;;;;4924173;29;20082;-86
2023/02/12 10:28:41;;;;;;;9.23;8.32;;;13.50;68.90;;;;;;4931114;28;20039;-87
2023/02/12 10:31:07;;;;;;;11.32;8.70;;;13.50;68.40;;;;;;4929775;29;20050;-77
2023/02/12 10:33:48;;;;;;;10.05;8.00;;;13.50;68.30;;;;;;4923639;28;20032;-77
2023/02/12 10:36:44;;;;;;;8.18;7.10;;;13.60;68.10;;;;;;4921356;29;20039;-77
2023/02/12 10:39:11;;;;;;;8.73;7.68;;;13.60;67.80;;;;;;4918439;29;20114;-79
2023/02/12 10:42:22;;;;;;;8.32;7.53;;;13.70;67.90;;;;;;4923209;29;20103;-78
2023/02/12 10:44:48;;;;;;;7.72;6.90;;;13.70;67.40;;;;;;4919924;29;20048;-79
2023/02/12 10:47:21;;;;;;;7.70;6.13;;;13.70;67.40;;;;;;4905084;29;20050;-77
2023/02/12 10:49:59;;;;;;;5.85;5.35;;;13.80;67.20;;;;;;4914562;29;20396;-76
2023/02/12 10:52:49;;;;;;;9.52;6.38;;;13.70;66.80;;;;;;4913734;29;20028;-77
2023/02/12 10:55:33;;;;;;;7.57;6.88;;;13.80;66.50;;;;;;4926199;29;20043;-78
2023/02/12 10:58:01;;;;;;;8.45;6.68;;;13.80;66.40;;;;;;4928390;29;20868;-78
2023/02/12 11:00:36;;;;;;;7.25;6.18;;;13.80;66.30;;;;;;4912888;29;20036;-77
2023/02/12 11:03:07;;;;;;;7.03;6.22;;;13.90;66.20;;;;;;4913308;29;20111;-78
2023/02/12 11:05:35;;;;;;;6.60;6.00;;;13.80;65.90;;;;;;4915762;29;20035;-78
2023/02/12 11:08:02;;;;;;;7.13;6.43;;;13.90;66.00;;;;;;4920923;29;20031;-76
2023/02/12 11:10:39;;;;;;;7.95;7.05;;;14.00;65.90;;;;;;4926242;29;20040;-76
2023/02/12 11:13:21;;;;;;;6.03;5.45;;;14.00;65.50;;;;;;4929976;28;20056;-79
2023/02/12 11:15:48;;;;;;;6.22;5.65;;;14.00;65.50;;;;;;4931889;28;20024;-78
2023/02/12 11:18:25;;;;;;;7.60;6.85;;;14.10;65.40;;;;;;4929307;29;20536;-77
2023/02/12 11:21:11;;;;;;;7.18;6.47;;;14.10;65.00;;;;;;4929418;29;20074;-78
2023/02/12 11:23:42;;;;;;;7.10;6.50;;;14.20;64.90;;;;;;4917775;29;20831;-79
2023/02/12 11:26:18;;;;;;;6.65;6.05;;;14.30;65.00;;;;;;4914606;29;20335;-78
2023/02/12 11:29:15;;;;;;;7.95;7.28;;;14.30;64.70;;;;;;4916816;29;20744;-78
2023/02/12 11:31:42;;;;;;;7.63;7.03;;;14.40;64.40;;;;;;4932685;28;20034;-79
2023/02/12 11:34:17;;;;;;;8.60;7.88;;;14.50;64.50;;;;;;4918322;29;20504;-79
2023/02/12 11:36:47;;;;;;;9.15;8.35;;;14.50;64.00;;;;;;4914488;29;20103;-78
2023/02/12 11:39:26;;;;;;;7.55;6.93;;;14.60;64.00;;;;;;4913641;29;20095;-79
2023/02/12 11:41:55;;;;;;;8.77;8.07;;;14.70;63.90;;;;;;4919786;29;20035;-77
2023/02/12 11:44:25;;;;;;;8.48;7.70;;;14.70;63.70;;;;;;4922867;29;20055;-77
2023/02/12 11:47:22;;;;;;;7.53;6.88;;;14.80;63.70;;;;;;4922251;29;20042;-77
2023/02/12 11:50:12;;;;;;;7.47;6.88;;;15.00;64.00;;;;;;4918499;29;20044;-75
2023/02/12 11:52:40;;;;;;;7.82;7.13;;;15.10;64.10;;;;;;4916624;29;20040;-75
2023/02/12 11:55:17;;;;;;;7.45;6.85;;;15.20;64.00;;;;;;4914452;29;20123;-76
2023/02/12 11:57:50;;;;;;;7.43;6.80;;;15.40;64.30;;;;;;4920859;29;20046;-76
2023/02/12 12:00:21;;;;;;;8.07;7.28;;;15.50;64.20;;;;;;4917212;29;20036;-76
2023/02/12 12:02:53;;;;;;;7.28;6.53;;;15.60;64.10;;;;;;4918275;29;20045;-75
2023/02/12 12:05:21;;;;;;;7.85;7.15;;;15.70;63.90;;;;;;4914086;29;20154;-75
2023/02/12 12:07:59;;;;;;;8.23;7.63;;;15.80;63.80;;;;;;4916736;29;20031;-74
2023/02/12 12:10:38;;;;;;;9.43;8.52;;;15.80;63.50;;;;;;4915212;29;20032;-75
2023/02/12 12:13:12;;;;;;;7.65;7.05;;;15.90;63.40;;;;;;4917124;29;20294;-76
2023/02/12 12:21:39;;;;;;;7.50;6.90;;;16.00;62.90;;;;;;4921422;29;20040;-77
2023/02/12 12:24:14;;;;;;;8.43;7.63;;;16.10;62.80;;;;;;4921640;29;20058;-75
2023/02/12 12:26:46;;;;;;;9.40;8.60;;;16.10;62.70;;;;;;4912903;29;20058;-75
2023/02/12 12:29:15;;;;;;;9.13;8.27;;;16.20;62.50;;;;;;4920226;29;20051;-75
2023/02/12 12:31:53;;;;;;;8.30;7.60;;;16.10;61.60;;;;;;4920163;29;20090;-75
2023/02/12 12:34:22;;;;;;;7.38;6.68;;;16.00;60.50;;;;;;4920950;29;20042;-82
2023/02/12 12:36:54;;;;;;;8.25;7.43;;;15.90;60.30;;;;;;4918047;29;20042;-80
2023/02/12 12:39:58;;;;;;;8.70;7.93;;;15.70;59.50;;;;;;4917877;29;20567;-79
2023/02/12 12:42:42;;;;;;;8.88;8.07;;;15.60;58.50;;;;;;4922324;29;20031;-79
2023/02/12 12:45:11;;;;;;;8.32;7.63;;;15.40;58.50;;;;;;4920648;29;20047;-79
2023/02/12 12:47:54;;;;;;;8.73;7.90;;;15.30;58.40;;;;;;4921631;29;20115;-79
2023/02/12 12:50:26;;;;;;;8.90;7.82;;;15.10;57.60;;;;;;4921292;29;20067;-76
2023/02/12 12:53:03;;;;;;;9.13;8.23;;;15.00;57.50;;;;;;4919392;29;20166;-75
2023/02/12 12:55:57;;;;;;;8.15;7.38;;;14.90;57.00;;;;;;4916862;29;20069;-75
2023/02/12 12:58:41;;;;;;;8.48;7.80;;;14.80;56.60;;;;;;4920423;29;20060;-75
2023/02/12 13:01:19;;;;;;;8.02;7.38;;;14.70;56.60;;;;;;4922846;29;20506;-76
2023/02/12 13:04:06;;;;;;;8.27;7.50;;;14.70;56.60;;;;;;4945245;28;20418;-74
2023/02/12 13:06:40;;;;;;;7.88;7.18;;;14.60;55.80;;;;;;4924790;29;20078;-76
2023/02/12 13:09:43;;;;;;;7.82;7.03;;;14.60;56.30;;;;;;4928358;28;20042;-76